EEL RIVER CAMP CA US current weather conditions

sailwx.info

Wind from 057 at 6 knots gusting 12

Air temperature 31.1° C
Dewpoint 11.5° C

Last reported at 2016-May-30 23:28 UTC.
Time now 2016-May-31 00:12 UTC

Location: N 40°08' W 123°49'.
View on Google Maps.

See reports from other nearby stations

  
Tides and Currents Weather Stations Pressure Air Temp Water Temp Dewpoint Dewpoint Depression Visibility Wind Speed Wind Dir Waves Ship Positions
date/time (UTC)wind fromknots sea level pressurealtimeterstation pressurevisibilityair tempwater tempwave heightnotes
2016-May-30 23:28 057 6 gusting 12 31.1
2016-May-30 22:28 098 4 gusting 8 32.2
2016-May-30 21:28 076 4 gusting 9 30.6
2016-May-30 20:28 066 5 gusting 9 28.3
2016-May-30 19:28 070 6 gusting 9 26.7
2016-May-30 18:28 079 4 gusting 9 25.0
2016-May-30 17:28 213 1 gusting 4 21.1
2016-May-30 16:28 100 1 gusting 3 17.8
2016-May-30 15:28 146 0 gusting 3 13.3
2016-May-30 14:28 183 0 gusting 1 9.4
2016-May-30 13:28 269 0 gusting 2 6.7
2016-May-30 12:28 267 1 gusting 4 7.2
2016-May-30 11:28 264 0 gusting 2 7.8
2016-May-30 10:28 329 0 gusting 4 8.3
2016-May-30 09:28 291 1 gusting 3 8.9
2016-May-30 08:28 352 2 gusting 10 9.4
2016-May-30 07:28 014 3 gusting 6 10.6
2016-May-30 06:28 301 1 gusting 6 11.1
2016-May-30 05:28 089 2 gusting 8 13.3
2016-May-30 04:28 034 5 gusting 9 15.0
2016-May-30 03:28 025 4 gusting 15 16.7
2016-May-30 02:28 076 5 gusting 12 20.6
2016-May-30 01:28 092 5 gusting 11 22.8
2016-May-30 00:28 250 3 gusting 15 24.4
2016-May-29 23:28 065 3 gusting 11 25.6
2016-May-29 22:28 038 4 gusting 13 25.0
2016-May-29 21:28 010 4 gusting 13 25.0
2016-May-29 20:28 039 6 gusting 13 25.0
2016-May-29 19:28 066 6 gusting 11 23.3
2016-May-29 18:28 065 7 gusting 12 21.1
2016-May-29 17:28 086 6 gusting 12 18.3
2016-May-29 16:28 100 4 gusting 10 16.1
2016-May-29 15:28 084 4 gusting 11 13.9
2016-May-29 14:28 157 1 gusting 4 10.0
2016-May-29 13:28 262 1 gusting 3 7.8
2016-May-29 12:28 294 1 gusting 3 7.8
2016-May-29 11:28 293 1 gusting 4 7.8
2016-May-29 10:28 259 1 gusting 3 7.8
2016-May-29 09:28 233 0 gusting 6 8.9
2016-May-29 08:28 004 3 gusting 6 10.0
2016-May-29 07:28 306 1 gusting 8 10.6
2016-May-29 06:28 019 4 gusting 9 12.2
2016-May-29 05:28 035 5 gusting 11 13.3
2016-May-29 04:28 059 6 gusting 12 14.4
2016-May-29 03:28 070 6 gusting 14 16.1
2016-May-29 02:28 059 6 gusting 13 18.9
2016-May-29 01:28 080 5 gusting 13 21.7
2016-May-29 00:28 036 5 gusting 14 23.3